Time;durP1;ratioP1;P1;durP2;ratioP2;P2;SDS_P1;SDS_P2;PMS_P1;PMS_P2;Temp;Humidity;BMP_temperature;BMP_pressure;BME280_temperature;BME280_humidity;BME280_pressure;Samples;Min_cycle;Max_cycle;Signal;HPM_P1;HPM_P2
2021/05/12 00:01:09;;;;;;;12.83;9.53;;;11.70;99.90;;;;;;5054728;28;20590;-59
2021/05/12 00:03:36;;;;;;;13.20;9.30;;;11.60;99.90;;;;;;5054621;28;20195;-59
2021/05/12 00:06:02;;;;;;;13.48;9.00;;;11.60;99.90;;;;;;5054470;28;20239;-59
2021/05/12 00:08:29;;;;;;;13.20;9.68;;;11.60;99.90;;;;;;5054721;28;20184;-59
2021/05/12 00:10:56;;;;;;;13.63;9.88;;;11.50;99.90;;;;;;5054445;28;20202;-59
2021/05/12 00:13:21;;;;;;;12.90;9.80;;;11.60;99.90;;;;;;5054194;28;20173;-59
2021/05/12 00:15:47;;;;;;;11.70;8.40;;;11.40;99.90;;;;;;5054902;28;20211;-59
2021/05/12 00:18:18;;;;;;;16.67;9.90;;;11.50;99.90;;;;;;5054469;28;20204;-59
2021/05/12 00:20:43;;;;;;;12.73;9.88;;;11.60;99.90;;;;;;5054246;28;20204;-59
2021/05/12 00:23:38;;;;;;;14.27;10.67;;;11.90;99.90;;;;;;5054393;28;20795;-59
2021/05/12 00:26:00;;;;;;;14.70;10.82;;;12.00;99.90;;;;;;5053989;28;20703;-59
2021/05/12 00:28:29;;;;;;;11.52;9.60;;;11.80;99.90;;;;;;5054339;28;20175;-59
2021/05/12 00:30:54;;;;;;;12.15;9.00;;;11.60;99.90;;;;;;5054173;28;20177;-59
2021/05/12 00:33:22;;;;;;;16.30;9.03;;;11.70;99.90;;;;;;5054205;28;20177;-59
2021/05/12 00:35:48;;;;;;;13.32;10.02;;;11.50;99.90;;;;;;5054036;28;20187;-59
2021/05/12 00:38:13;;;;;;;15.30;10.13;;;11.60;99.90;;;;;;5054253;28;20500;-58
2021/05/12 00:40:39;;;;;;;12.40;10.13;;;11.50;99.90;;;;;;5053925;28;20647;-58
2021/05/12 00:43:04;;;;;;;10.80;8.80;;;11.60;99.90;;;;;;5053998;28;20242;-59
2021/05/12 00:45:30;;;;;;;12.87;9.47;;;11.60;99.90;;;;;;5053671;28;20180;-59
2021/05/12 00:47:55;;;;;;;13.20;9.77;;;11.60;99.90;;;;;;5053960;28;20181;-59
2021/05/12 00:50:23;;;;;;;17.80;9.60;;;11.60;99.90;;;;;;5053898;28;20180;-58
2021/05/12 00:52:48;;;;;;;13.52;9.35;;;11.70;99.90;;;;;;5054210;28;20264;-58
2021/05/12 00:55:15;;;;;;;13.53;9.60;;;11.60;99.90;;;;;;5053427;28;20391;-59
2021/05/12 00:57:41;;;;;;;16.50;9.43;;;11.60;99.90;;;;;;5053891;28;20192;-58
2021/05/12 01:00:10;;;;;;;15.77;10.20;;;11.40;99.90;;;;;;5053428;28;20212;-58
2021/05/12 01:02:36;;;;;;;16.25;11.52;;;11.30;99.90;;;;;;5053626;28;20181;-61
2021/05/12 01:05:03;;;;;;;13.90;10.40;;;11.60;99.90;;;;;;5053241;28;20171;-61
2021/05/12 01:07:29;;;;;;;12.15;10.23;;;11.40;99.90;;;;;;5053415;28;20192;-61
2021/05/12 01:09:55;;;;;;;12.60;10.30;;;11.40;99.90;;;;;;5053592;28;20495;-62
2021/05/12 01:12:20;;;;;;;15.47;11.47;;;11.50;99.90;;;;;;5053502;28;20193;-62
2021/05/12 01:14:48;;;;;;;16.60;11.70;;;11.70;99.90;;;;;;5053145;28;20187;-63
2021/05/12 01:17:15;;;;;;;19.20;11.45;;;11.90;99.90;;;;;;5053386;28;20572;-62
2021/05/12 01:19:42;;;;;;;16.35;11.35;;;11.90;99.90;;;;;;5053236;28;20234;-62
2021/05/12 01:22:08;;;;;;;15.80;11.98;;;12.00;99.90;;;;;;5053223;28;20184;-63
2021/05/12 01:24:34;;;;;;;19.30;10.80;;;12.10;99.90;;;;;;5052372;28;20203;-62
2021/05/12 01:26:59;;;;;;;12.60;9.40;;;11.80;99.90;;;;;;5053309;28;20189;-62
2021/05/12 01:29:25;;;;;;;12.70;10.63;;;11.60;99.90;;;;;;5053232;28;20204;-62
2021/05/12 01:31:54;;;;;;;13.47;11.00;;;11.50;99.90;;;;;;5053238;28;20531;-62
2021/05/12 01:34:20;;;;;;;13.48;9.93;;;11.60;99.90;;;;;;5052631;28;20274;-58
2021/05/12 01:36:47;;;;;;;13.98;9.35;;;11.80;99.90;;;;;;5052984;28;20231;-59
2021/05/12 01:39:14;;;;;;;13.77;9.95;;;11.90;99.90;;;;;;5053163;28;20794;-59
2021/05/12 01:41:40;;;;;;;13.35;9.90;;;11.90;99.90;;;;;;5052018;28;20270;-58
2021/05/12 01:44:11;;;;;;;12.00;8.15;;;12.20;99.90;;;;;;5052414;28;20219;-58
2021/05/12 01:46:38;;;;;;;11.60;8.40;;;12.10;99.90;;;;;;5052990;28;20192;-58
2021/05/12 01:49:04;;;;;;;12.73;9.13;;;12.10;99.90;;;;;;5052701;28;20510;-59
2021/05/12 01:51:29;;;;;;;13.07;9.00;;;12.10;99.90;;;;;;5052906;28;20199;-59
2021/05/12 01:53:55;;;;;;;13.57;8.87;;;12.10;99.90;;;;;;5052613;28;20423;-58
2021/05/12 01:56:21;;;;;;;12.13;8.17;;;12.00;99.90;;;;;;5052748;28;20172;-58
2021/05/12 01:58:46;;;;;;;10.03;8.00;;;11.70;99.90;;;;;;5052519;28;20263;-58
2021/05/12 02:01:12;;;;;;;11.47;7.73;;;11.70;99.90;;;;;;5052848;28;20177;-58
2021/05/12 02:03:39;;;;;;;15.13;8.13;;;11.80;99.90;;;;;;5052413;28;20259;-58
2021/05/12 02:06:05;;;;;;;14.57;7.82;;;11.80;99.90;;;;;;5052890;28;20204;-58
2021/05/12 02:08:31;;;;;;;10.60;8.70;;;11.60;99.90;;;;;;5052662;28;20169;-58
2021/05/12 02:11:06;;;;;;;10.57;8.40;;;11.80;99.90;;;;;;5052650;28;20443;-63
2021/05/12 02:13:32;;;;;;;12.90;8.70;;;11.80;99.90;;;;;;5052672;28;20184;-62
2021/05/12 02:16:00;;;;;;;13.95;8.82;;;11.80;99.90;;;;;;5052282;28;20266;-62
2021/05/12 02:18:25;;;;;;;11.40;9.38;;;11.80;99.90;;;;;;5052539;28;20176;-62
2021/05/12 02:20:51;;;;;;;10.30;7.97;;;11.90;99.90;;;;;;5053553;28;20231;-62
2021/05/12 02:23:19;;;;;;;10.50;8.03;;;12.00;99.90;;;;;;5053131;28;20181;-62
2021/05/12 02:25:44;;;;;;;8.70;7.30;;;11.80;99.90;;;;;;5053269;28;20211;-62
2021/05/12 02:28:11;;;;;;;9.13;7.47;;;11.80;99.90;;;;;;5053162;28;20629;-62
2021/05/12 02:30:38;;;;;;;9.07;7.50;;;11.80;99.90;;;;;;5052606;28;20180;-62
2021/05/12 02:33:05;;;;;;;8.77;7.35;;;11.90;99.90;;;;;;5052802;28;20504;-62
2021/05/12 02:35:31;;;;;;;10.70;7.30;;;11.90;99.90;;;;;;5056625;28;20169;-65
2021/05/12 02:37:57;;;;;;;10.18;6.40;;;11.90;99.90;;;;;;5061962;28;20267;-64
2021/05/12 02:40:23;;;;;;;9.67;7.00;;;12.00;99.90;;;;;;5060620;28;20236;-59
2021/05/12 02:42:51;;;;;;;10.80;7.15;;;12.00;99.90;;;;;;5060907;28;20177;-59
2021/05/12 02:45:17;;;;;;;10.55;6.82;;;12.00;99.90;;;;;;5061614;28;20176;-59
2021/05/12 02:47:56;;;;;;;9.30;7.10;;;12.00;99.90;;;;;;5062976;28;20334;-59
2021/05/12 02:50:27;;;;;;;11.05;7.60;;;11.80;99.90;;;;;;5062784;28;20204;-59
2021/05/12 02:52:53;;;;;;;10.60;6.85;;;11.60;99.90;;;;;;5062347;28;20189;-59
2021/05/12 02:55:19;;;;;;;8.70;6.30;;;11.60;99.90;;;;;;5062409;28;20745;-59
2021/05/12 02:57:45;;;;;;;9.13;7.68;;;11.60;99.90;;;;;;5062873;28;20623;-59
2021/05/12 03:00:11;;;;;;;9.60;6.60;;;11.70;99.90;;;;;;5055989;28;20208;-59
2021/05/12 03:02:37;;;;;;;8.20;6.38;;;11.60;99.90;;;;;;5056309;28;20194;-59
2021/05/12 03:05:04;;;;;;;11.47;7.70;;;11.50;99.90;;;;;;5055871;28;20622;-59
2021/05/12 03:07:29;;;;;;;12.45;7.95;;;11.60;99.90;;;;;;5055711;28;20177;-60
2021/05/12 03:09:55;;;;;;;16.40;8.53;;;11.60;99.90;;;;;;5055951;28;20188;-58
2021/05/12 03:12:20;;;;;;;11.47;7.80;;;11.60;99.90;;;;;;5055673;28;20192;-58
2021/05/12 03:14:46;;;;;;;10.53;8.40;;;11.70;99.90;;;;;;5054308;28;20177;-58
2021/05/12 03:17:14;;;;;;;11.33;7.87;;;11.60;99.90;;;;;;5055850;28;20189;-58
2021/05/12 03:19:40;;;;;;;17.65;9.27;;;11.70;99.90;;;;;;5055492;28;20216;-58
2021/05/12 03:22:06;;;;;;;13.87;9.40;;;11.60;99.90;;;;;;5055592;28;20176;-59
2021/05/12 03:24:31;;;;;;;13.50;8.63;;;11.70;99.90;;;;;;5054960;28;20186;-59
2021/05/12 03:26:57;;;;;;;13.60;8.60;;;11.70;99.90;;;;;;5055444;28;20180;-62
2021/05/12 03:29:22;;;;;;;14.43;10.20;;;11.80;99.90;;;;;;5055715;28;20188;-58
2021/05/12 03:31:48;;;;;;;14.97;9.70;;;11.90;99.90;;;;;;5055407;28;20188;-62
2021/05/12 03:34:13;;;;;;;13.60;9.20;;;11.70;99.90;;;;;;5054825;28;20452;-62
2021/05/12 03:36:39;;;;;;;14.90;10.20;;;11.80;99.90;;;;;;5055327;28;20216;-62
2021/05/12 03:39:05;;;;;;;14.87;9.67;;;11.70;99.90;;;;;;5055174;28;20292;-62
2021/05/12 03:41:31;;;;;;;15.77;10.15;;;11.80;99.90;;;;;;5055246;28;20207;-62
2021/05/12 03:43:59;;;;;;;15.13;10.07;;;11.80;99.90;;;;;;5053084;28;20172;-62
2021/05/12 03:46:25;;;;;;;19.50;10.77;;;11.80;99.90;;;;;;5054607;28;20178;-62
2021/05/12 03:48:50;;;;;;;15.77;10.90;;;11.70;99.90;;;;;;5055105;28;20191;-62
2021/05/12 03:51:16;;;;;;;18.93;11.17;;;11.70;99.90;;;;;;5055221;28;20234;-59
2021/05/12 03:53:41;;;;;;;15.90;10.63;;;11.60;99.90;;;;;;5054679;28;20264;-60
2021/05/12 03:56:07;;;;;;;15.67;10.77;;;11.70;99.90;;;;;;5054572;28;20197;-60
2021/05/12 03:58:33;;;;;;;16.97;10.90;;;11.60;99.90;;;;;;5055047;28;20187;-60
2021/05/12 04:00:59;;;;;;;18.17;10.77;;;11.60;99.90;;;;;;5055093;28;20512;-62
2021/05/12 04:03:28;;;;;;;17.10;10.20;;;11.60;99.90;;;;;;5054772;28;20177;-62
2021/05/12 04:05:53;;;;;;;17.63;9.10;;;11.60;99.90;;;;;;5054584;28;20626;-60
2021/05/12 04:08:19;;;;;;;17.20;10.23;;;11.60;99.90;;;;;;5054626;28;20184;-58
2021/05/12 04:10:45;;;;;;;17.50;10.50;;;11.60;99.90;;;;;;5053477;28;20786;-58
2021/05/12 04:13:10;;;;;;;17.50;10.23;;;11.70;99.90;;;;;;5054582;28;20564;-60
2021/05/12 04:15:36;;;;;;;10.90;8.67;;;11.80;99.90;;;;;;5054466;28;20181;-58
2021/05/12 04:18:01;;;;;;;14.43;9.97;;;12.00;99.90;;;;;;5054562;28;20209;-60
2021/05/12 04:20:27;;;;;;;14.10;9.37;;;12.30;99.90;;;;;;5054301;28;20212;-59
2021/05/12 04:22:52;;;;;;;16.30;10.10;;;12.40;99.90;;;;;;5055608;28;20191;-64
2021/05/12 04:25:20;;;;;;;12.33;9.90;;;12.20;99.90;;;;;;5054009;28;20189;-63
2021/05/12 04:27:47;;;;;;;14.98;10.05;;;12.30;99.90;;;;;;5055459;28;20184;-60
2021/05/12 04:30:15;;;;;;;14.35;9.80;;;12.40;99.90;;;;;;5054324;28;20634;-60
2021/05/12 04:32:41;;;;;;;14.90;9.00;;;12.50;99.90;;;;;;5054320;28;20212;-59
2021/05/12 04:35:08;;;;;;;14.70;9.13;;;12.50;99.90;;;;;;5053826;28;20200;-62
2021/05/12 04:37:34;;;;;;;14.82;9.88;;;12.40;99.90;;;;;;5055368;28;20184;-64
2021/05/12 04:39:59;;;;;;;13.00;8.80;;;12.40;99.90;;;;;;5055478;28;20219;-64
2021/05/12 04:42:25;;;;;;;14.37;9.87;;;12.40;99.90;;;;;;5056052;28;20642;-63
2021/05/12 04:44:52;;;;;;;10.90;8.30;;;12.50;99.90;;;;;;5055079;28;20173;-63
2021/05/12 04:47:18;;;;;;;19.50;9.43;;;12.50;99.90;;;;;;5055824;28;20180;-63
2021/05/12 04:49:44;;;;;;;16.83;8.50;;;12.60;99.90;;;;;;5055962;28;20188;-63
2021/05/12 04:52:12;;;;;;;13.57;10.30;;;12.60;99.90;;;;;;5055572;28;20580;-64
2021/05/12 04:54:38;;;;;;;14.10;11.10;;;12.60;99.90;;;;;;5054750;28;20180;-64
2021/05/12 04:57:04;;;;;;;16.23;9.90;;;12.60;99.90;;;;;;5055396;28;20177;-64
2021/05/12 04:59:29;;;;;;;16.30;9.13;;;12.50;99.90;;;;;;5053849;28;20210;-64
2021/05/12 05:01:55;;;;;;;13.40;8.80;;;12.70;99.90;;;;;;5055580;28;20833;-64
2021/05/12 05:04:23;;;;;;;15.87;10.83;;;12.70;99.90;;;;;;5055107;28;20180;-63
2021/05/12 05:06:48;;;;;;;14.95;10.45;;;12.70;99.90;;;;;;5054981;28;20173;-64
2021/05/12 05:09:17;;;;;;;15.97;10.30;;;12.80;99.90;;;;;;5054972;28;20188;-63
2021/05/12 05:11:43;;;;;;;14.43;10.57;;;12.70;99.90;;;;;;5054744;28;20211;-63
2021/05/12 05:14:08;;;;;;;10.90;8.87;;;12.80;99.90;;;;;;5054032;28;20173;-63
2021/05/12 05:16:34;;;;;;;14.30;9.50;;;12.90;99.90;;;;;;5055182;28;20200;-64
2021/05/12 05:19:03;;;;;;;13.20;10.37;;;13.00;99.90;;;;;;5055322;28;20295;-63
2021/05/12 05:21:29;;;;;;;16.25;9.65;;;13.00;99.90;;;;;;5054395;28;20235;-64
2021/05/12 05:23:54;;;;;;;16.03;9.97;;;13.00;99.90;;;;;;5054673;28;20177;-63
2021/05/12 05:26:20;;;;;;;16.43;10.80;;;12.80;99.90;;;;;;5054825;28;20177;-63
2021/05/12 05:28:46;;;;;;;16.43;9.10;;;12.70;99.90;;;;;;5053842;28;20593;-63
2021/05/12 05:31:12;;;;;;;14.60;9.30;;;12.80;99.90;;;;;;5054591;28;20411;-63
2021/05/12 05:33:38;;;;;;;14.60;9.23;;;12.90;99.90;;;;;;5053659;28;20179;-62
2021/05/12 05:36:03;;;;;;;10.87;8.83;;;12.70;99.90;;;;;;5053065;28;20469;-62
2021/05/12 05:38:29;;;;;;;13.83;9.83;;;12.70;99.90;;;;;;5053207;28;20645;-62
2021/05/12 05:40:55;;;;;;;14.03;9.07;;;12.60;99.90;;;;;;5052728;28;20548;-63
2021/05/12 05:43:20;;;;;;;12.40;9.53;;;12.60;99.90;;;;;;5052056;28;20260;-63
2021/05/12 05:45:46;;;;;;;13.03;9.80;;;12.80;99.90;;;;;;5052812;28;20187;-62
2021/05/12 05:48:11;;;;;;;15.57;11.53;;;12.80;99.90;;;;;;5052883;28;20169;-63
2021/05/12 05:50:42;;;;;;;14.40;8.50;;;13.00;99.90;;;;;;5052993;28;20254;-63
2021/05/12 05:53:07;;;;;;;14.18;9.85;;;13.00;99.90;;;;;;5051965;28;20188;-63
2021/05/12 05:55:33;;;;;;;15.07;9.60;;;12.80;99.90;;;;;;5052567;28;20246;-62
2021/05/12 05:57:58;;;;;;;11.10;9.20;;;12.90;99.90;;;;;;5053508;28;20181;-64
2021/05/12 06:00:24;;;;;;;15.57;9.03;;;12.90;99.90;;;;;;5053397;28;20204;-64
2021/05/12 06:02:51;;;;;;;13.40;9.33;;;12.80;99.90;;;;;;5053343;28;20189;-64
2021/05/12 06:05:19;;;;;;;14.15;10.45;;;12.90;99.90;;;;;;5053454;28;20234;-64
2021/05/12 06:07:48;;;;;;;12.70;9.25;;;12.80;99.90;;;;;;5054485;28;20173;-64
2021/05/12 06:10:13;;;;;;;11.63;9.07;;;13.00;99.90;;;;;;5053267;28;20204;-64
2021/05/12 06:12:39;;;;;;;11.50;9.00;;;12.90;99.90;;;;;;5054514;28;20185;-64
2021/05/12 06:15:08;;;;;;;18.27;9.50;;;12.90;99.90;;;;;;5053569;28;20191;-63
2021/05/12 06:17:40;;;;;;;13.60;9.00;;;12.90;99.90;;;;;;5054462;28;20189;-64
2021/05/12 06:20:07;;;;;;;14.43;9.77;;;13.00;99.90;;;;;;5054430;28;20215;-64
2021/05/12 06:22:33;;;;;;;14.02;9.50;;;13.20;99.90;;;;;;5055402;28;20267;-64
2021/05/12 06:24:59;;;;;;;15.10;10.38;;;13.40;99.90;;;;;;5054267;28;20204;-64
2021/05/12 06:27:25;;;;;;;17.63;10.87;;;13.30;99.90;;;;;;5055196;28;20187;-64
2021/05/12 06:29:50;;;;;;;14.60;9.83;;;13.20;99.90;;;;;;5054872;28;20177;-64
2021/05/12 06:32:16;;;;;;;15.50;11.03;;;13.30;99.90;;;;;;5055215;28;20200;-64
2021/05/12 06:34:41;;;;;;;14.03;9.83;;;13.40;99.90;;;;;;5054067;28;20548;-59
2021/05/12 06:37:07;;;;;;;16.67;11.43;;;13.40;99.90;;;;;;5053278;28;20176;-59
2021/05/12 06:39:33;;;;;;;16.03;10.30;;;13.50;99.90;;;;;;5053243;28;20200;-59
2021/05/12 06:41:58;;;;;;;14.20;11.33;;;13.60;99.90;;;;;;5053430;28;20712;-58
2021/05/12 06:44:24;;;;;;;16.93;12.10;;;13.40;99.90;;;;;;5052825;28;20662;-60
2021/05/12 06:46:53;;;;;;;19.85;12.02;;;13.40;99.90;;;;;;5052854;28;20640;-59
2021/05/12 06:49:20;;;;;;;16.58;12.07;;;13.30;99.90;;;;;;5053100;28;20181;-59
2021/05/12 06:51:45;;;;;;;13.77;9.50;;;13.30;99.90;;;;;;5052990;28;20184;-59
2021/05/12 06:54:11;;;;;;;15.47;11.60;;;13.30;99.90;;;;;;5052587;28;20189;-62
2021/05/12 06:56:37;;;;;;;18.03;11.63;;;13.40;99.90;;;;;;5053050;28;20657;-62
2021/05/12 06:59:03;;;;;;;14.98;10.93;;;13.30;99.90;;;;;;5053033;28;20215;-62
2021/05/12 07:01:29;;;;;;;18.33;11.80;;;13.40;99.90;;;;;;5052658;28;20173;-62
2021/05/12 07:03:55;;;;;;;15.00;11.00;;;13.20;99.90;;;;;;5052597;28;20234;-58
2021/05/12 07:06:20;;;;;;;16.10;10.73;;;13.10;99.90;;;;;;5052980;28;20177;-58
2021/05/12 07:08:50;;;;;;;19.80;11.97;;;13.20;99.90;;;;;;5053007;28;20181;-58
2021/05/12 07:11:16;;;;;;;21.83;12.95;;;13.20;99.90;;;;;;5050584;28;20660;-59
2021/05/12 07:13:41;;;;;;;17.13;10.65;;;13.20;99.90;;;;;;5052554;28;20279;-59
2021/05/12 07:16:07;;;;;;;13.90;10.27;;;13.10;99.90;;;;;;5052704;28;20184;-64
2021/05/12 07:18:33;;;;;;;17.03;11.07;;;13.20;99.90;;;;;;5050856;28;20177;-59
2021/05/12 07:20:59;;;;;;;14.07;10.03;;;13.10;99.90;;;;;;5052998;28;20209;-65
2021/05/12 07:23:28;;;;;;;12.20;10.50;;;13.40;99.90;;;;;;5055310;28;20188;-68
2021/05/12 07:25:56;;;;;;;14.77;10.95;;;13.40;99.90;;;;;;5054868;28;20473;-68
2021/05/12 07:28:22;;;;;;;13.77;10.07;;;13.20;99.90;;;;;;5055575;28;20272;-68
2021/05/12 07:30:48;;;;;;;14.70;11.10;;;13.30;99.90;;;;;;5054591;28;20185;-68
2021/05/12 07:33:13;;;;;;;15.03;11.20;;;13.60;99.90;;;;;;5055109;28;20191;-69
2021/05/12 07:35:39;;;;;;;12.30;9.90;;;13.50;99.90;;;;;;5054924;28;20598;-66
2021/05/12 07:38:05;;;;;;;18.43;11.23;;;13.40;99.90;;;;;;5055387;28;20176;-65
2021/05/12 07:40:33;;;;;;;13.80;10.40;;;13.70;99.90;;;;;;5054470;28;20637;-68
2021/05/12 07:43:01;;;;;;;11.25;10.05;;;13.60;99.90;;;;;;5055104;28;20427;-68
2021/05/12 07:45:27;;;;;;;14.85;11.18;;;13.50;99.90;;;;;;5055162;28;20264;-68
2021/05/12 07:47:52;;;;;;;14.95;10.82;;;13.80;99.90;;;;;;5055361;28;20184;-69
2021/05/12 07:50:18;;;;;;;11.00;9.83;;;13.80;99.90;;;;;;5055400;28;20185;-68
2021/05/12 07:52:44;;;;;;;13.10;10.40;;;13.90;99.90;;;;;;5055970;28;20511;-65
2021/05/12 07:55:13;;;;;;;13.00;9.63;;;13.70;99.90;;;;;;5054677;28;20197;-62
2021/05/12 07:57:39;;;;;;;14.10;9.40;;;13.70;99.90;;;;;;5055022;28;20275;-69
2021/05/12 08:00:08;;;;;;;11.80;9.13;;;13.70;99.90;;;;;;5054004;28;20209;-65
2021/05/12 08:02:33;;;;;;;12.32;8.80;;;13.50;99.90;;;;;;5055654;28;20184;-66
2021/05/12 08:04:59;;;;;;;11.90;9.90;;;13.90;99.90;;;;;;5054782;28;20176;-64
2021/05/12 08:07:24;;;;;;;13.70;9.70;;;14.20;99.90;;;;;;5054635;28;20283;-64
2021/05/12 08:09:50;;;;;;;14.27;8.87;;;14.30;99.90;;;;;;5054597;28;20211;-64
2021/05/12 08:12:16;;;;;;;14.77;9.67;;;14.20;99.90;;;;;;5054370;28;20548;-65
2021/05/12 08:14:41;;;;;;;17.50;9.47;;;14.20;99.90;;;;;;5054277;28;20234;-64
2021/05/12 08:17:07;;;;;;;13.67;10.43;;;14.10;99.90;;;;;;5054638;28;20177;-64
2021/05/12 08:19:33;;;;;;;10.40;8.67;;;14.30;99.90;;;;;;5054578;28;20220;-60
2021/05/12 08:22:07;;;;;;;15.60;9.88;;;14.60;99.90;;;;;;5054499;28;20629;-64
2021/05/12 08:24:33;;;;;;;14.57;10.05;;;14.70;99.90;;;;;;5053565;28;20187;-65
2021/05/12 08:27:01;;;;;;;11.83;8.87;;;14.70;99.90;;;;;;5054600;28;20263;-65
2021/05/12 08:29:28;;;;;;;13.68;10.32;;;14.60;99.90;;;;;;5054406;28;20177;-64
2021/05/12 08:31:56;;;;;;;15.38;9.90;;;14.60;99.90;;;;;;5054552;28;20185;-63
2021/05/12 08:34:21;;;;;;;10.40;9.27;;;14.50;99.90;;;;;;5052843;28;20195;-65
2021/05/12 08:36:47;;;;;;;13.63;9.10;;;14.40;99.90;;;;;;5054077;28;20424;-65
2021/05/12 08:39:13;;;;;;;13.20;9.07;;;14.40;99.90;;;;;;5053991;28;20283;-66
2021/05/12 08:41:41;;;;;;;13.10;8.93;;;14.40;99.90;;;;;;5054073;28;20614;-65
2021/05/12 08:44:10;;;;;;;11.60;9.48;;;14.70;99.90;;;;;;5053860;28;20218;-64
2021/05/12 08:46:39;;;;;;;14.13;10.25;;;14.70;99.90;;;;;;5054233;28;20177;-64
2021/05/12 08:49:05;;;;;;;17.40;10.07;;;14.60;99.90;;;;;;5054078;28;20185;-60
2021/05/12 08:51:32;;;;;;;13.18;10.07;;;14.90;99.90;;;;;;5054070;28;20172;-65
2021/05/12 08:53:58;;;;;;;13.20;8.68;;;15.20;99.90;;;;;;5053911;28;20193;-65
2021/05/12 08:56:23;;;;;;;14.67;9.03;;;15.20;99.90;;;;;;5054034;28;20238;-64
2021/05/12 08:58:49;;;;;;;16.10;9.37;;;15.30;99.90;;;;;;5054039;28;20189;-65
2021/05/12 09:01:16;;;;;;;13.20;9.80;;;14.90;99.90;;;;;;5053778;28;20196;-62
2021/05/12 09:03:44;;;;;;;15.00;10.17;;;15.00;99.90;;;;;;5053587;28;20762;-63
2021/05/12 09:06:09;;;;;;;12.80;9.43;;;15.40;99.90;;;;;;5053560;28;20434;-63
2021/05/12 09:08:36;;;;;;;14.80;8.53;;;15.20;99.90;;;;;;5053683;28;20177;-64
2021/05/12 09:11:01;;;;;;;11.37;8.70;;;15.70;99.90;;;;;;5053569;28;20447;-66
2021/05/12 09:13:38;;;;;;;15.30;7.10;;;15.80;90.00;;;;;;5053499;28;20511;-66
2021/05/12 09:16:20;;;;;;;13.17;6.80;;;15.80;1.00;;;;;;5053312;28;20184;-66
2021/05/12 09:18:46;;;;;;;10.63;7.67;;;16.00;1.00;;;;;;5053184;28;20441;-66
2021/05/12 09:21:13;;;;;;;12.77;6.87;;;15.80;7.30;;;;;;5053503;28;20411;-64
2021/05/12 09:23:41;;;;;;;7.73;5.10;;;15.80;1.00;;;;;;5053342;28;20744;-65
2021/05/12 09:26:15;;;;;;;10.70;6.40;;;14.80;23.10;;;;;;5052820;28;20426;-65
2021/05/12 09:28:41;;;;;;;10.90;5.90;;;14.90;99.90;;;;;;5053345;28;20891;-65
2021/05/12 09:31:14;;;;;;;12.20;6.85;;;14.90;52.20;;;;;;5053095;28;20181;-65
2021/05/12 09:33:45;;;;;;;11.60;6.07;;;14.90;97.80;;;;;;5053516;28;20181;-66
2021/05/12 09:36:28;;;;;;;9.43;6.57;;;15.10;2.20;;;;;;5056997;28;20628;-65
2021/05/12 09:38:55;;;;;;;7.88;5.75;;;15.10;21.20;;;;;;5072911;28;20194;-66
2021/05/12 09:41:31;;;;;;;8.45;5.10;;;15.00;38.50;;;;;;5066329;28;20231;-63
2021/05/12 09:43:57;;;;;;;9.50;5.95;;;15.10;62.90;;;;;;5052614;28;20537;-63
2021/05/12 09:46:27;;;;;;;8.07;6.10;;;14.70;42.50;;;;;;5052072;28;20540;-63
2021/05/12 09:48:58;;;;;;;7.60;6.03;;;14.80;71.50;;;;;;5053104;28;20427;-63
2021/05/12 09:51:24;;;;;;;7.70;5.78;;;15.10;89.90;;;;;;5070989;28;20426;-65
2021/05/12 09:54:00;;;;;;;8.80;5.87;;;15.10;1.00;;;;;;5072212;28;20571;-63
2021/05/12 09:56:39;;;;;;;9.68;5.57;;;14.90;1.00;;;;;;5071673;28;20286;-63
2021/05/12 09:59:20;;;;;;;10.90;5.53;;;14.90;1.00;;;;;;5071505;28;20697;-63
2021/05/12 10:01:49;;;;;;;8.07;5.45;;;14.90;1.00;;;;;;5072724;28;20430;-64
2021/05/12 10:04:27;;;;;;;8.97;5.00;;;15.10;1.00;;;;;;5073458;28;20194;-66
2021/05/12 10:06:54;;;;;;;7.47;5.30;;;15.60;1.00;;;;;;5066817;28;20935;-66
2021/05/12 10:09:24;;;;;;;6.73;5.50;;;16.20;1.00;;;;;;5052160;28;20450;-65
2021/05/12 10:12:04;;;;;;;4.93;4.53;;;16.40;1.00;;;;;;5052456;28;20528;-64
2021/05/12 10:14:33;;;;;;;7.10;4.57;;;16.70;99.90;;;;;;5051724;28;20442;-65
2021/05/12 10:16:59;;;;;;;6.40;4.97;;;16.60;99.90;;;;;;5052309;28;20439;-64
2021/05/12 10:19:25;;;;;;;9.10;4.07;;;16.70;99.90;;;;;;5051964;28;20474;-67
2021/05/12 10:21:50;;;;;;;6.17;4.10;;;16.00;1.00;;;;;;5052640;28;20442;-68
2021/05/12 10:24:16;;;;;;;9.03;5.10;;;15.70;1.00;;;;;;5051988;28;20570;-68
2021/05/12 10:26:45;;;;;;;7.77;4.70;;;15.70;1.00;;;;;;5051163;28;20180;-67
2021/05/12 10:29:17;;;;;;;6.03;3.85;;;15.90;1.00;;;;;;5052024;28;20188;-65
2021/05/12 10:31:47;;;;;;;7.73;3.57;;;16.10;1.00;;;;;;5052314;28;20234;-68
2021/05/12 10:34:17;;;;;;;6.47;4.40;;;16.00;1.00;;;;;;5051915;28;20427;-66
2021/05/12 10:36:43;;;;;;;8.10;4.70;;;15.60;1.00;;;;;;5052346;28;20423;-67
2021/05/12 10:39:09;;;;;;;8.10;6.20;;;15.50;1.00;;;;;;5052050;28;20486;-65
2021/05/12 10:41:47;;;;;;;6.23;4.90;;;15.50;1.00;;;;;;5062625;28;20176;-67
2021/05/12 10:44:18;;;;;;;5.88;4.20;;;15.60;1.00;;;;;;5071502;28;20225;-67
2021/05/12 10:47:04;;;;;;;5.10;3.95;;;15.20;1.00;;;;;;5052984;28;20238;-67
2021/05/12 10:49:30;;;;;;;7.97;3.47;;;15.00;1.00;;;;;;5051624;28;20593;-62
2021/05/12 10:51:55;;;;;;;4.93;4.53;;;14.80;42.80;;;;;;5051809;28;20467;-67
2021/05/12 10:54:39;;;;;;;5.10;3.07;;;14.80;7.40;;;;;;5052178;28;20177;-67
2021/05/12 10:57:06;;;;;;;5.25;4.68;;;15.00;3.10;;;;;;5054019;28;20203;-66
2021/05/12 10:59:32;;;;;;;8.25;3.70;;;15.00;1.00;;;;;;5057226;28;20203;-67
2021/05/12 11:01:58;;;;;;;3.53;3.07;;;15.00;1.00;;;;;;5057089;28;20342;-67
2021/05/12 11:04:25;;;;;;;4.10;3.60;;;15.30;1.00;;;;;;5056881;28;20495;-67
2021/05/12 11:06:50;;;;;;;3.60;3.30;;;15.20;1.00;;;;;;5057728;28;20701;-67
2021/05/12 11:09:36;;;;;;;5.47;3.17;;;15.40;1.00;;;;;;5056887;28;20506;-65
2021/05/12 11:12:15;;;;;;;4.40;4.00;;;15.70;1.00;;;;;;5056909;28;20648;-67
2021/05/12 11:14:53;;;;;;;4.10;3.47;;;15.90;1.00;;;;;;5057820;28;20488;-68
2021/05/12 11:17:21;;;;;;;4.17;3.40;;;15.70;1.00;;;;;;5057565;28;20492;-67
2021/05/12 11:19:55;;;;;;;6.40;4.10;;;16.00;1.00;;;;;;5058237;28;21033;-66
2021/05/12 11:33:22;;;;;;;5.50;4.23;;;16.50;99.90;;;;;;5056444;28;20445;-67
2021/05/12 11:35:52;;;;;;;8.20;5.73;;;16.80;99.90;;;;;;5055223;28;20533;-68
2021/05/12 11:38:19;;;;;;;7.73;5.47;;;16.60;99.90;;;;;;5055073;28;20419;-65
2021/05/12 11:41:18;;;;;;;6.57;5.53;;;16.50;99.90;;;;;;5054785;28;20466;-66
2021/05/12 11:43:49;;;;;;;6.33;4.90;;;16.90;99.90;;;;;;5012963;28;20447;-66
2021/05/12 11:46:16;;;;;;;7.10;6.17;;;18.00;1.00;;;;;;5042603;28;20416;-65
2021/05/12 11:48:56;;;;;;;8.37;6.33;;;17.80;99.90;;;;;;5047083;28;20439;-67
2021/05/12 11:51:34;;;;;;;11.20;6.37;;;16.90;1.00;;;;;;5046627;28;20454;-62
2021/05/12 11:54:01;;;;;;;9.53;6.73;;;16.30;99.90;;;;;;5035472;28;20503;-65
2021/05/12 11:56:27;;;;;;;10.90;7.10;;;16.70;99.90;;;;;;5047678;28;20434;-71
2021/05/12 11:59:13;;;;;;;11.87;8.00;;;17.70;5.30;;;;;;5055001;28;20511;-65
2021/05/12 12:01:48;;;;;;;8.70;6.47;;;17.40;1.00;;;;;;5054914;28;20207;-61
2021/05/12 12:05:00;;;;;;;8.33;6.13;;;17.10;1.00;;;;;;5054490;28;20446;-63
2021/05/12 12:07:04;;;;;;;8.27;6.87;;;17.50;1.00;;;;;;5051891;28;20446;-66
2021/05/12 12:09:30;;;;;;;9.40;7.23;;;17.50;1.00;;;;;;5054470;28;20424;-66
2021/05/12 12:11:58;;;;;;;10.37;6.30;;;17.20;1.00;;;;;;5053599;28;20443;-66
2021/05/12 12:14:32;;;;;;;12.57;6.47;;;17.10;1.00;;;;;;5054306;28;20427;-69
2021/05/12 12:16:58;;;;;;;10.60;6.40;;;16.30;99.90;;;;;;5054593;28;20431;-68
2021/05/12 12:19:26;;;;;;;8.77;6.00;;;15.90;99.90;;;;;;5054373;28;20994;-67
2021/05/12 12:21:55;;;;;;;8.27;7.07;;;15.60;1.00;;;;;;5054424;28;20423;-66
2021/05/12 12:24:24;;;;;;;11.67;6.50;;;15.40;1.00;;;;;;5054185;28;20892;-66
2021/05/12 12:26:53;;;;;;;11.63;5.90;;;15.80;1.00;;;;;;5054350;28;20518;-65
2021/05/12 12:29:29;;;;;;;10.00;5.80;;;15.90;1.00;;;;;;5054305;28;20431;-65
2021/05/12 12:31:59;;;;;;;8.83;5.97;;;15.80;1.00;;;;;;5054411;28;20759;-65
2021/05/12 12:34:32;;;;;;;10.67;6.90;;;15.90;1.00;;;;;;5051267;28;20764;-63
2021/05/12 12:37:01;;;;;;;6.57;4.10;;;16.10;1.00;;;;;;5047778;28;20447;-64
2021/05/12 12:39:36;;;;;;;14.53;5.30;;;16.10;1.00;;;;;;5053488;28;20459;-63
2021/05/12 12:42:03;;;;;;;4.30;3.57;;;16.10;99.90;;;;;;5052230;28;20564;-63
2021/05/12 12:44:40;;;;;;;6.07;4.30;;;16.50;1.00;;;;;;5053695;28;20419;-60
2021/05/12 12:47:14;;;;;;;8.17;4.67;;;16.30;1.00;;;;;;5053122;28;20469;-59
2021/05/12 12:49:54;;;;;;;8.63;4.37;;;16.70;1.00;;;;;;5045782;28;20477;-62
2021/05/12 12:52:21;;;;;;;8.03;4.57;;;17.30;1.00;;;;;;5046756;28;20423;-63